createdAt,value
2023-01-02T00:01:00.701Z,66.70
2023-01-02T00:03:28.139Z,66.80
2023-01-02T00:05:55.409Z,66.80
2023-01-02T00:08:22.475Z,67.10
2023-01-02T00:10:53.137Z,67.30
2023-01-02T00:13:20.574Z,67.40
2023-01-02T00:15:47.606Z,67.50
2023-01-02T00:18:14.513Z,67.60
2023-01-02T00:20:41.641Z,67.70
2023-01-02T00:23:08.819Z,68.50
2023-01-02T00:25:35.833Z,67.70
2023-01-02T00:28:03.199Z,67.70
2023-01-02T00:30:37.647Z,67.60
2023-01-02T00:33:06.358Z,67.60
2023-01-02T00:35:33.768Z,67.80
2023-01-02T00:38:00.705Z,68.10
2023-01-02T00:40:27.589Z,68.90
2023-01-02T00:42:54.558Z,68.20
2023-01-02T00:45:21.469Z,68.30
2023-01-02T00:47:48.510Z,68.30
2023-01-02T00:50:15.547Z,68.40
2023-01-02T00:52:42.660Z,68.60
2023-01-02T00:55:09.925Z,68.70
2023-01-02T00:57:37.515Z,68.90
2023-01-02T01:00:06.575Z,69.00
2023-01-02T01:02:33.655Z,68.90
2023-01-02T01:05:00.659Z,68.90
2023-01-02T01:07:29.297Z,68.90
2023-01-02T01:09:56.143Z,68.80
2023-01-02T01:12:23.274Z,68.80
2023-01-02T01:14:50.175Z,68.80
2023-01-02T01:17:17.046Z,68.70
2023-01-02T01:19:44.141Z,68.70
2023-01-02T01:22:11.955Z,68.60
2023-01-02T01:24:38.927Z,68.30
2023-01-02T01:27:05.800Z,68.40
2023-01-02T01:29:32.723Z,68.40
2023-01-02T01:31:59.643Z,68.40
2023-01-02T01:34:26.613Z,68.70
2023-01-02T01:36:53.473Z,68.90
2023-01-02T01:39:20.406Z,69.00
2023-01-02T01:41:47.513Z,69.20
2023-01-02T01:44:52.931Z,69.40
2023-01-02T01:47:51.861Z,69.50
2023-01-02T01:50:24.953Z,69.50
2023-01-02T01:52:56.610Z,69.40
2023-01-02T01:55:32.022Z,69.30
2023-01-02T01:58:06.628Z,69.20
2023-01-02T02:00:34.695Z,69.30
2023-01-02T02:03:07.440Z,69.30
2023-01-02T02:05:35.115Z,69.30
2023-01-02T02:08:10.952Z,69.40
2023-01-02T02:10:38.484Z,69.40
2023-01-02T02:13:05.608Z,69.40
2023-01-02T02:15:47.734Z,69.40
2023-01-02T02:18:33.165Z,69.50
2023-01-02T02:21:35.036Z,69.60
2023-01-02T02:24:01.953Z,69.90
2023-01-02T02:26:34.638Z,70.00
2023-01-02T02:29:26.256Z,70.10
2023-01-02T02:36:19.686Z,70.10
2023-01-02T02:39:11.743Z,70.10
2023-01-02T02:41:53.597Z,70.10
2023-01-02T02:45:01.720Z,70.00
2023-01-02T02:47:35.568Z,70.00
2023-01-02T02:50:18.660Z,69.80
2023-01-02T02:52:51.940Z,69.60
2023-01-02T02:55:44.652Z,69.50
2023-01-02T02:58:14.683Z,69.50
2023-01-02T03:00:41.545Z,69.60
2023-01-02T03:03:17.154Z,69.50
2023-01-02T03:06:08.975Z,69.60
2023-01-02T03:08:42.777Z,69.60
2023-01-02T03:11:11.070Z,69.50
2023-01-02T03:13:50.394Z,69.20
2023-01-02T03:16:39.505Z,68.90
2023-01-02T03:19:11.408Z,68.80
2023-01-02T03:21:41.541Z,68.70
2023-01-02T03:24:12.585Z,68.60
2023-01-02T03:26:43.989Z,68.50
2023-01-02T03:29:16.930Z,68.40
2023-01-02T03:31:45.573Z,68.40
2023-01-02T03:34:15.632Z,68.40
2023-01-02T03:36:45.273Z,68.30
2023-01-02T03:39:34.703Z,68.50
2023-01-02T03:42:12.776Z,68.50
2023-01-02T03:45:12.980Z,68.40
2023-01-02T03:47:49.273Z,68.40
2023-01-02T03:50:23.510Z,68.40
2023-01-02T03:52:50.670Z,68.60
2023-01-02T03:55:18.235Z,68.60
2023-01-02T03:57:57.043Z,68.70
2023-01-02T04:00:41.259Z,68.80
2023-01-02T04:03:14.379Z,68.50
2023-01-02T04:05:58.375Z,68.40
2023-01-02T04:08:30.945Z,67.90
2023-01-02T04:11:00.966Z,67.50
2023-01-02T04:13:39.426Z,67.20
2023-01-02T04:16:10.387Z,66.90
2023-01-02T04:18:46.646Z,66.60
2023-01-02T04:21:19.576Z,67.20
2023-01-02T04:24:12.932Z,66.20
2023-01-02T04:26:55.081Z,66.20
2023-01-02T04:29:22.040Z,66.40
2023-01-02T04:32:01.337Z,66.40
2023-01-02T04:34:32.054Z,66.20
2023-01-02T04:36:59.184Z,65.80
2023-01-02T04:39:29.042Z,65.80
2023-01-02T04:41:55.983Z,66.40
2023-01-02T04:44:22.935Z,65.40
2023-01-02T04:46:49.951Z,65.30
2023-01-02T04:49:16.860Z,65.00
2023-01-02T04:51:44.463Z,64.90
2023-01-02T04:54:12.246Z,64.80
2023-01-02T04:56:39.384Z,64.80
2023-01-02T04:59:06.419Z,64.60
2023-01-02T05:01:33.426Z,64.60
2023-01-02T05:04:00.494Z,64.60
2023-01-02T05:06:27.348Z,64.70
2023-01-02T05:08:54.373Z,64.70
2023-01-02T05:11:21.637Z,64.80
2023-01-02T05:13:48.558Z,64.80
2023-01-02T05:16:15.519Z,64.90
2023-01-02T05:18:42.709Z,65.20
2023-01-02T05:21:30.732Z,65.30
2023-01-02T05:24:00.135Z,65.50
2023-01-02T05:26:27.499Z,65.70
2023-01-02T05:28:55.014Z,65.90
2023-01-02T05:31:22.069Z,66.20
2023-01-02T05:33:53.376Z,66.40
2023-01-02T05:36:21.508Z,66.40
2023-01-02T05:38:48.955Z,66.60
2023-01-02T05:41:16.636Z,66.80
2023-01-02T05:43:43.572Z,66.70
2023-01-02T05:46:18.862Z,66.80
2023-01-02T05:48:46.453Z,66.10
2023-01-02T05:51:16.465Z,65.50
2023-01-02T05:53:44.170Z,65.50
2023-01-02T05:56:17.178Z,65.20
2023-01-02T05:58:45.138Z,64.70
2023-01-02T06:01:15.299Z,64.20
2023-01-02T06:03:50.035Z,64.20
2023-01-02T06:06:19.093Z,64.10
2023-01-02T06:08:46.093Z,64.00
2023-01-02T06:11:14.353Z,64.00
2023-01-02T06:13:42.628Z,63.90
2023-01-02T06:16:11.091Z,64.00
2023-01-02T06:18:39.324Z,64.00
2023-01-02T06:21:09.068Z,63.90
2023-01-02T06:23:37.657Z,63.70
2023-01-02T06:26:10.415Z,63.30
2023-01-02T06:28:37.849Z,63.00
2023-01-02T06:31:10.363Z,62.70
2023-01-02T06:33:37.685Z,62.60
2023-01-02T06:36:13.727Z,62.00
2023-01-02T06:38:40.740Z,62.10
2023-01-02T06:41:09.066Z,62.10
2023-01-02T06:43:40.984Z,62.00
2023-01-02T06:46:07.997Z,62.20
2023-01-02T06:48:35.426Z,62.50
2023-01-02T06:51:10.780Z,62.40
2023-01-02T06:53:39.885Z,62.10
2023-01-02T06:56:07.961Z,61.80
2023-01-02T06:58:36.435Z,61.40
2023-01-02T07:01:09.340Z,61.40
2023-01-02T07:03:36.432Z,61.10
2023-01-02T07:06:10.250Z,60.80
2023-01-02T07:08:37.958Z,60.80
2023-01-02T07:11:13.381Z,60.20
2023-01-02T07:13:41.850Z,59.50
2023-01-02T07:16:11.990Z,59.40
2023-01-02T07:18:39.258Z,59.40
2023-01-02T07:21:08.054Z,59.20
2023-01-02T07:23:35.594Z,59.40
2023-01-02T07:26:04.982Z,59.50
2023-01-02T07:28:33.020Z,59.50
2023-01-02T07:31:02.479Z,59.60
2023-01-02T07:33:30.310Z,59.70
2023-01-02T07:36:02.629Z,59.60
2023-01-02T07:38:29.872Z,60.20
2023-01-02T07:40:56.839Z,59.50
2023-01-02T07:43:24.962Z,59.30
2023-01-02T07:45:51.997Z,59.10
2023-01-02T07:48:19.474Z,58.80
2023-01-02T07:50:46.778Z,58.90
2023-01-02T07:53:13.964Z,58.80
2023-01-02T07:55:41.065Z,59.00
2023-01-02T07:58:08.116Z,59.10
2023-01-02T08:00:35.179Z,59.10
2023-01-02T08:03:02.349Z,59.00
2023-01-02T08:05:29.412Z,58.60
2023-01-02T08:07:56.351Z,58.00
2023-01-02T08:10:23.231Z,57.60
2023-01-02T08:12:50.214Z,57.90
2023-01-02T08:15:17.597Z,57.90
2023-01-02T08:17:44.516Z,58.00
2023-01-02T08:20:11.856Z,58.00
2023-01-02T08:22:38.943Z,57.90
2023-01-02T08:25:07.787Z,57.10
2023-01-02T08:27:34.811Z,56.10
2023-01-02T08:30:02.089Z,55.90
2023-01-02T08:32:29.033Z,56.00
2023-01-02T08:34:56.079Z,56.00
2023-01-02T08:37:42.510Z,55.90
2023-01-02T08:40:12.207Z,55.90
2023-01-02T08:42:43.078Z,55.60
2023-01-02T08:45:10.780Z,55.40
2023-01-02T08:47:37.935Z,54.80
2023-01-02T08:50:08.154Z,54.10
2023-01-02T08:52:35.124Z,53.70
2023-01-02T08:55:03.945Z,52.80
2023-01-02T08:57:32.876Z,52.50
2023-01-02T09:00:01.134Z,52.10
2023-01-02T09:02:28.221Z,51.60
2023-01-02T09:04:55.356Z,51.20
2023-01-02T09:07:22.411Z,50.80
2023-01-02T09:09:50.663Z,50.60
2023-01-02T09:12:18.683Z,50.50
2023-01-02T09:14:45.800Z,50.10
2023-01-02T09:17:12.871Z,49.80
2023-01-02T09:19:40.156Z,49.30
2023-01-02T09:22:09.260Z,49.10
2023-01-02T09:24:36.365Z,48.90
2023-01-02T09:27:03.770Z,48.70
2023-01-02T09:29:31.743Z,48.50
2023-01-02T09:32:00.438Z,48.40
2023-01-02T09:34:28.156Z,48.40
2023-01-02T09:36:55.077Z,48.40
2023-01-02T09:39:25.599Z,48.40
2023-01-02T09:41:59.120Z,48.50
2023-01-02T09:44:37.532Z,48.00
2023-01-02T09:47:12.993Z,47.70
2023-01-02T09:49:51.243Z,46.80
2023-01-02T09:52:32.271Z,46.40
2023-01-02T09:54:59.832Z,46.30
2023-01-02T09:57:26.970Z,46.60
2023-01-02T10:00:02.856Z,46.50
2023-01-02T10:02:55.886Z,46.30
2023-01-02T10:05:40.941Z,45.90
2023-01-02T10:08:20.195Z,45.90
2023-01-02T10:11:03.634Z,46.00
2023-01-02T10:14:08.856Z,46.10
2023-01-02T10:16:26.738Z,46.50
2023-01-02T10:18:55.791Z,46.20
2023-01-02T10:21:27.289Z,46.50
2023-01-02T10:24:03.757Z,46.80
2023-01-02T10:26:47.692Z,47.10
2023-01-02T10:29:19.349Z,47.10
2023-01-02T10:31:58.248Z,47.30
2023-01-02T10:34:25.567Z,46.70
2023-01-02T10:36:52.495Z,46.00
2023-01-02T10:39:27.825Z,46.30
2023-01-02T10:41:58.706Z,46.70
2023-01-02T10:44:33.998Z,46.60
2023-01-02T10:47:19.287Z,46.30
2023-01-02T10:49:47.770Z,46.70
2023-01-02T10:52:39.261Z,46.90
2023-01-02T10:55:06.602Z,47.10
2023-01-02T10:57:43.653Z,47.40
2023-01-02T11:00:27.547Z,47.20
2023-01-02T11:02:58.718Z,47.00
2023-01-02T11:05:28.965Z,46.70
2023-01-02T11:07:57.221Z,46.20
2023-01-02T11:10:28.858Z,46.10
2023-01-02T11:12:56.345Z,45.90
2023-01-02T11:15:27.656Z,46.30
2023-01-02T11:17:54.832Z,46.30
2023-01-02T11:20:32.518Z,46.20
2023-01-02T11:23:02.584Z,45.90
2023-01-02T11:25:44.259Z,45.60
2023-01-02T11:28:32.507Z,45.60
2023-01-02T11:31:09.060Z,45.60
2023-01-02T11:33:38.146Z,45.60
2023-01-02T11:36:06.537Z,45.60
2023-01-02T11:38:44.339Z,45.60
2023-01-02T11:41:48.325Z,45.50
2023-01-02T11:44:20.758Z,45.10
2023-01-02T11:46:48.563Z,45.00
2023-01-02T11:49:21.447Z,45.20
2023-01-02T11:51:56.399Z,45.60
2023-01-02T11:54:31.058Z,45.10
2023-01-02T11:57:00.268Z,45.60
2023-01-02T11:59:41.535Z,45.10
2023-01-02T12:02:20.565Z,45.10
2023-01-02T12:04:47.759Z,44.90
2023-01-02T12:07:20.731Z,45.20
2023-01-02T12:10:16.119Z,45.40
2023-01-02T12:13:04.198Z,45.50
2023-01-02T12:15:43.540Z,45.20
2023-01-02T12:18:39.572Z,45.30
2023-01-02T12:21:27.126Z,45.00
2023-01-02T12:24:06.459Z,45.20
2023-01-02T12:26:55.418Z,45.50
2023-01-02T12:29:47.093Z,45.30
2023-01-02T12:32:51.262Z,45.50
2023-01-02T12:35:30.278Z,45.60
2023-01-02T12:37:59.282Z,46.40
2023-01-02T12:40:35.379Z,45.90
2023-01-02T12:43:29.896Z,46.00
2023-01-02T12:46:02.758Z,46.20
2023-01-02T12:48:50.995Z,46.00
2023-01-02T12:51:38.506Z,46.40
2023-01-02T12:54:27.107Z,46.70
2023-01-02T12:57:28.169Z,46.80
2023-01-02T13:00:08.792Z,46.60
2023-01-02T13:03:03.939Z,46.70
2023-01-02T13:05:53.983Z,47.10
2023-01-02T13:08:32.494Z,47.60
2023-01-02T13:11:04.173Z,47.90
2023-01-02T13:13:36.496Z,48.00
2023-01-02T13:16:24.507Z,48.20
2023-01-02T13:19:40.066Z,48.40
2023-01-02T13:22:16.072Z,48.50
2023-01-02T13:24:43.546Z,48.70
2023-01-02T13:27:11.429Z,48.90
2023-01-02T13:29:47.476Z,49.00
2023-01-02T13:32:15.583Z,49.20
2023-01-02T13:34:53.991Z,49.10
2023-01-02T13:37:23.948Z,49.10
2023-01-02T13:39:54.631Z,49.50
2023-01-02T13:43:00.458Z,49.90
2023-01-02T13:46:23.723Z,50.30
2023-01-02T13:58:53.349Z,54.70
2023-01-02T14:01:23.929Z,55.60
2023-01-02T14:04:15.868Z,56.20
2023-01-02T14:06:50.025Z,56.50
2023-01-02T14:09:22.099Z,56.80
2023-01-02T14:11:56.259Z,56.80
2023-01-02T14:14:30.148Z,57.30
2023-01-02T14:17:28.487Z,57.80
2023-01-02T14:20:25.701Z,59.50
2023-01-02T14:23:02.545Z,61.50
2023-01-02T14:25:32.066Z,63.70
2023-01-02T14:28:04.652Z,65.00
2023-01-02T14:30:39.847Z,65.90
2023-01-02T14:33:09.538Z,66.40
2023-01-02T14:35:53.892Z,66.80
2023-01-02T14:38:24.770Z,67.50
2023-01-02T14:40:52.669Z,67.50
2023-01-02T14:43:33.696Z,67.70
2023-01-02T14:46:21.286Z,67.90
2023-01-02T14:49:25.587Z,68.00
2023-01-02T14:52:05.137Z,67.90
2023-01-02T14:54:53.829Z,67.90
2023-01-02T14:57:31.422Z,68.00
2023-01-02T15:00:02.716Z,68.20
2023-01-02T15:02:41.396Z,68.50
2023-01-02T15:05:21.781Z,68.90
2023-01-02T15:07:55.816Z,69.60
2023-01-02T15:10:24.095Z,70.20
2023-01-02T15:13:09.232Z,70.30
2023-01-02T15:15:38.386Z,70.60
2023-01-02T15:18:29.803Z,70.50
2023-01-02T15:21:15.929Z,70.40
2023-01-02T15:23:45.014Z,70.40
2023-01-02T15:26:31.493Z,70.00
2023-01-02T15:29:28.767Z,69.80
2023-01-02T15:32:00.454Z,69.70
2023-01-02T15:34:32.836Z,70.20
2023-01-02T15:37:04.635Z,70.60
2023-01-02T15:39:38.471Z,70.90
2023-01-02T15:42:26.679Z,70.80
2023-01-02T15:45:13.588Z,70.60
2023-01-02T15:47:45.873Z,70.60
2023-01-02T15:50:23.960Z,70.40
2023-01-02T15:53:20.935Z,70.10
2023-01-02T15:55:49.395Z,69.70
2023-01-02T15:58:16.320Z,69.40
2023-01-02T16:00:45.239Z,69.40
2023-01-02T16:04:04.045Z,69.20
2023-01-02T16:06:39.838Z,69.10
2023-01-02T16:09:17.630Z,68.90
2023-01-02T16:11:48.400Z,68.90
2023-01-02T16:14:20.310Z,68.90
2023-01-02T16:16:51.870Z,68.80
2023-01-02T16:19:31.302Z,69.60
2023-01-02T16:22:07.015Z,68.60
2023-01-02T16:24:36.784Z,68.60
2023-01-02T16:27:04.718Z,68.60
2023-01-02T16:29:32.838Z,68.60
2023-01-02T16:32:01.722Z,68.50
2023-01-02T16:34:32.993Z,68.60
2023-01-02T16:37:15.578Z,68.60
2023-01-02T16:39:45.305Z,68.60
2023-01-02T16:42:30.910Z,68.50
2023-01-02T16:44:57.851Z,68.40
2023-01-02T16:47:43.110Z,68.20
2023-01-02T16:50:21.988Z,68.30
2023-01-02T16:52:49.728Z,68.40
2023-01-02T16:55:19.993Z,68.60
2023-01-02T16:58:40.369Z,68.60
2023-01-02T17:01:14.217Z,68.70
2023-01-02T17:03:47.860Z,68.90
2023-01-02T17:06:18.294Z,69.10
2023-01-02T17:08:45.630Z,69.10
2023-01-02T17:11:16.403Z,69.40
2023-01-02T17:13:43.469Z,69.70
2023-01-02T17:16:10.560Z,69.90
2023-01-02T17:18:37.516Z,70.60
2023-01-02T17:21:04.650Z,70.90
2023-01-02T17:23:31.616Z,71.40
2023-01-02T17:26:12.292Z,71.70
2023-01-02T17:28:45.240Z,72.30
2023-01-02T17:31:25.333Z,72.80
2023-01-02T17:34:06.641Z,73.30
2023-01-02T17:36:37.172Z,73.30
2023-01-02T17:39:14.561Z,74.40
2023-01-02T17:41:53.686Z,75.10
2023-01-02T17:50:10.984Z,76.00
2023-01-02T17:52:38.460Z,76.40
2023-01-02T17:55:07.532Z,76.70
2023-01-02T17:57:38.971Z,77.10
2023-01-02T18:00:09.753Z,77.60
2023-01-02T18:02:40.045Z,78.70
2023-01-02T18:05:08.195Z,79.50
2023-01-02T18:07:35.325Z,80.50
2023-01-02T18:10:08.625Z,81.20
2023-01-02T18:12:38.096Z,81.40
2023-01-02T18:15:11.964Z,81.80
2023-01-02T18:17:38.796Z,81.90
2023-01-02T18:20:17.593Z,82.90
2023-01-02T18:22:49.665Z,82.30
2023-01-02T18:25:27.321Z,82.40
2023-01-02T18:28:05.109Z,82.40
2023-01-02T18:30:32.172Z,82.80
2023-01-02T18:33:14.466Z,83.00
2023-01-02T18:35:58.528Z,83.40
2023-01-02T18:38:32.189Z,83.30
2023-01-02T18:41:00.163Z,83.60
2023-01-02T18:43:37.056Z,83.70
2023-01-02T18:47:02.120Z,83.80
2023-01-02T18:49:24.188Z,83.80
2023-01-02T18:52:11.992Z,83.80
2023-01-02T18:54:44.739Z,83.90
2023-01-02T18:57:21.541Z,83.90
2023-01-02T18:59:52.404Z,83.80
2023-01-02T19:03:01.023Z,83.80
2023-01-02T19:05:29.568Z,83.80
2023-01-02T19:08:08.699Z,83.70
2023-01-02T19:10:41.404Z,83.60
2023-01-02T19:13:24.471Z,83.60
2023-01-02T19:15:51.945Z,83.50
2023-01-02T19:18:47.628Z,83.30
2023-01-02T19:21:35.886Z,83.30
2023-01-02T19:24:19.397Z,83.30
2023-01-02T19:26:49.009Z,82.90
2023-01-02T19:29:21.629Z,82.80
2023-01-02T19:32:03.762Z,82.80
2023-01-02T19:34:50.431Z,82.50
2023-01-02T19:37:26.341Z,82.30
2023-01-02T19:39:55.382Z,82.00
2023-01-02T19:42:24.385Z,81.80
2023-01-02T19:44:57.080Z,81.60
2023-01-02T19:47:30.133Z,81.50
2023-01-02T19:49:57.986Z,81.70
2023-01-02T19:52:26.511Z,81.70
2023-01-02T19:54:53.558Z,82.60
2023-01-02T19:57:21.805Z,82.00
2023-01-02T19:59:51.811Z,82.10
2023-01-02T20:02:21.150Z,82.80
2023-01-02T20:04:52.272Z,82.90
2023-01-02T20:07:20.556Z,83.00
2023-01-02T20:09:47.758Z,83.10
2023-01-02T20:12:34.652Z,83.80
2023-01-02T20:15:07.997Z,83.20
2023-01-02T20:17:36.109Z,83.10
2023-01-02T20:20:05.196Z,83.20
2023-01-02T20:22:32.403Z,83.00
2023-01-02T20:25:00.239Z,82.90
2023-01-02T20:27:27.392Z,82.70
2023-01-02T20:29:55.416Z,82.70
2023-01-02T20:32:23.767Z,82.70
2023-01-02T20:34:51.903Z,82.40
2023-01-02T20:37:21.107Z,82.30
2023-01-02T20:39:52.345Z,82.10
2023-01-02T20:42:20.343Z,81.70
2023-01-02T20:44:47.781Z,82.00
2023-01-02T20:47:14.894Z,82.10
2023-01-02T20:49:41.955Z,82.30
2023-01-02T20:52:09.297Z,82.20
2023-01-02T20:54:38.430Z,81.50
2023-01-02T20:57:07.004Z,81.50
2023-01-02T20:59:34.488Z,81.80
2023-01-02T21:02:02.207Z,81.90
2023-01-02T21:04:34.402Z,81.90
2023-01-02T21:07:05.798Z,82.00
2023-01-02T21:09:33.070Z,81.50
2023-01-02T21:12:00.043Z,81.40
2023-01-02T21:14:29.035Z,81.50
2023-01-02T21:16:58.894Z,81.20
2023-01-02T21:19:25.830Z,81.20
2023-01-02T21:21:52.736Z,81.20
2023-01-02T21:24:19.635Z,81.00
2023-01-02T21:26:46.559Z,81.10
2023-01-02T21:29:13.676Z,80.70
2023-01-02T21:31:40.703Z,80.60
2023-01-02T21:34:08.023Z,80.40
2023-01-02T21:36:37.073Z,80.50
2023-01-02T21:39:04.095Z,80.40
2023-01-02T21:41:49.576Z,80.00
2023-01-02T21:44:18.549Z,80.00
2023-01-02T21:46:45.536Z,79.80
2023-01-02T21:49:13.058Z,79.60
2023-01-02T21:51:39.979Z,79.50
2023-01-02T21:54:06.896Z,79.40
2023-01-02T21:56:33.855Z,79.20
2023-01-02T21:59:01.370Z,79.10
2023-01-02T22:01:28.712Z,79.00
2023-01-02T22:03:57.478Z,79.00
2023-01-02T22:06:24.549Z,78.70
2023-01-02T22:08:51.470Z,78.90
2023-01-02T22:11:37.012Z,79.20
2023-01-02T22:14:04.019Z,79.20
2023-01-02T22:16:31.580Z,79.20
2023-01-02T22:18:58.552Z,79.00
2023-01-02T22:21:25.583Z,79.00
2023-01-02T22:23:53.593Z,79.10
2023-01-02T22:26:20.570Z,78.90
2023-01-02T22:28:47.428Z,79.00
2023-01-02T22:31:14.724Z,78.80
2023-01-02T22:33:42.105Z,78.70
2023-01-02T22:36:09.458Z,78.80
2023-01-02T22:38:43.935Z,78.70
2023-01-02T22:41:22.323Z,78.60
2023-01-02T22:43:49.266Z,78.60
2023-01-02T22:46:25.423Z,78.70
2023-01-02T22:48:53.015Z,78.40
2023-01-02T22:51:25.893Z,78.50
2023-01-02T22:53:58.142Z,78.30
2023-01-02T22:56:26.393Z,77.90
2023-01-02T22:58:53.256Z,77.80
2023-01-02T23:01:32.607Z,77.60
2023-01-02T23:04:00.237Z,77.60
2023-01-02T23:06:27.973Z,77.40
2023-01-02T23:08:55.260Z,77.60
2023-01-02T23:11:22.773Z,77.70
2023-01-02T23:13:56.016Z,78.20
2023-01-02T23:16:42.284Z,77.70
2023-01-02T23:19:15.188Z,77.70
2023-01-02T23:21:48.396Z,77.60
2023-01-02T23:24:18.204Z,77.60
2023-01-02T23:26:49.162Z,77.60
2023-01-02T23:29:17.855Z,77.60
2023-01-02T23:31:47.431Z,77.60
2023-01-02T23:34:16.862Z,77.70
2023-01-02T23:36:44.364Z,77.80
2023-01-02T23:39:14.728Z,77.70
2023-01-02T23:41:43.697Z,77.70
2023-01-02T23:44:12.612Z,77.80
2023-01-02T23:46:40.357Z,77.70
2023-01-02T23:49:08.719Z,77.60
2023-01-02T23:51:36.567Z,77.40
2023-01-02T23:54:03.537Z,77.40
2023-01-02T23:56:33.013Z,77.30
2023-01-02T23:59:02.010Z,77.10
